• Join FlightAware (Why Join?)
  • Login
  • US Flag 
09:47AM EDT


 

Airport Tracker/Info


-or-


 

Live Flight TrackerFlight Track Log ✈ QLK115 ✈ 14-Jun-2013 ✈ YCFS - YSSY / SYD

Flight Track Log - Related Links

Times and Time Zones

All times are in EDT time to prevent confusion due to time zone crossing. See the QLK115 flight status page for this flight to view local times or setup timezone preferences in your user account.

Time Position Orientation Groundspeed Altitude Reporting Facility
EDT Latitude Longitude Course Direction KTS MPH feet Rate Location/Type
06:36AM -30.5983 152.8910 215° Southwest  Level FlightAware Approximate
06:37AM -30.6538 152.8458 215° Southwest  Level FlightAware Approximate
06:38AM -30.7093 152.8005 215° Southwest  Level FlightAware Approximate
06:39AM -30.7647 152.7552 215° Southwest  Level FlightAware Approximate
06:40AM -30.8202 152.7098 215° Southwest  Level FlightAware Approximate
06:41AM -30.8756 152.6644 215° Southwest  Level FlightAware Approximate
06:42AM -30.9310 152.6189 215° Southwest  Level FlightAware Approximate
06:43AM -30.9865 152.5733 215° Southwest  Level FlightAware Approximate
06:44AM -31.0418 152.5278 215° Southwest  Level FlightAware Approximate
06:45AM -31.0972 152.4821 215° Southwest  Level FlightAware Approximate
06:46AM -31.1526 152.4364 215° Southwest  Level FlightAware Approximate
06:47AM -31.2079 152.3907 215° Southwest  Level FlightAware Approximate
06:48AM -31.2632 152.3448 215° Southwest  Level FlightAware Approximate
06:49AM -31.3185 152.2990 215° Southwest  Level FlightAware Approximate
06:50AM -31.3738 152.2531 215° Southwest  Level FlightAware Approximate
06:51AM -31.4291 152.2071 215° Southwest  Level FlightAware Approximate
06:52AM -31.4844 152.1611 215° Southwest  Level FlightAware Approximate
06:53AM -31.5396 152.1150 215° Southwest  Level FlightAware Approximate
06:54AM -31.5948 152.0689 215° Southwest  Level FlightAware Approximate
06:55AM -31.6500 152.0227 215° Southwest  Level FlightAware Approximate
06:56AM -31.7052 151.9764 215° Southwest  Level FlightAware Approximate
06:57AM -31.7604 151.9301 216° Southwest  Level FlightAware Approximate
06:58AM -31.8156 151.8838 216° Southwest  Level FlightAware Approximate
06:59AM -31.8648 151.8423 216° Southwest  Level FlightAware Approximate
07:00AM -31.9199 151.7958 216° Southwest  Level FlightAware Approximate
07:01AM -31.9750 151.7493 216° Southwest  Level FlightAware Approximate
07:02AM -32.0301 151.7027 216° Southwest  Level FlightAware Approximate
07:03AM -32.0851 151.6560 216° Southwest  Level FlightAware Approximate
07:04AM -32.1402 151.6093 216° Southwest  Level FlightAware Approximate
07:05AM -32.1952 151.5626 216° Southwest  Level FlightAware Approximate
07:06AM -32.2502 151.5157 216° Southwest  Level FlightAware Approximate
07:07AM -32.3052 151.4689 216° Southwest  Level FlightAware Approximate
07:08AM -32.3602 151.4219 216° Southwest  Level FlightAware Approximate
07:09AM -32.4151 151.3749 216° Southwest  Level FlightAware Approximate
07:10AM -32.4701 151.3279 216° Southwest  Level FlightAware Approximate
07:11AM -32.5250 151.2808 216° Southwest  Level FlightAware Approximate
07:12AM -32.5864 151.2557 183° South  Level FlightAware Approximate
07:13AM -32.6541 151.2520 183° South  Level FlightAware Approximate
07:14AM -32.7218 151.2484 183° South  Level FlightAware Approximate
07:15AM -32.7895 151.2447 183° South  Level FlightAware Approximate
07:16AM -32.8573 151.2411 183° South  Level FlightAware Approximate
07:17AM -32.9250 151.2374 183° South  Level FlightAware Approximate
07:18AM -32.9927 151.2337 183° South  Level FlightAware Approximate
07:19AM -33.0604 151.2301 183° South  Level FlightAware Approximate
07:20AM -33.1281 151.2264 183° South  Level FlightAware Approximate
07:21AM -33.1958 151.2227 183° South  Level FlightAware Approximate
07:22AM -33.2635 151.2190 183° South  Level FlightAware Approximate
07:23AM -33.3312 151.2153 183° South  Level FlightAware Approximate
07:24AM -33.3989 151.2116 183° South  Level FlightAware Approximate
07:25AM -33.4667 151.2078 183° South  Level FlightAware Approximate
07:26AM -33.5344 151.2040 183° South  Level FlightAware Approximate
07:27AM -33.6021 151.2001 183° South  Level FlightAware Approximate
07:28AM -33.6698 151.1963 183° South  Level FlightAware Approximate
07:29AM -33.7375 151.1925 183° South  Level FlightAware Approximate
07:30AM -33.8052 151.1886 183° South  Level FlightAware Approximate
07:31AM -33.8729 151.1848 183° South  Level FlightAware Approximate
07:32AM -33.9406 151.1809 183° South  Level FlightAware Approximate
07:33AM -33.9429 151.1808 183° South  Level FlightAware Approximate
07:34AM -33.9461 151.1772 183° South  Level Estimated
07:35AM -33.9429 151.1808 183° South  Level FlightAware Approximate
07:36AM -33.9461 151.1772 183° South  Level Estimated
07:37AM -33.9429 151.1808 183° South  Level FlightAware Approximate
07:38AM -33.9461 151.1772 183° South  Level Estimated
07:39AM -33.9429 151.1808 183° South  Level FlightAware Approximate
07:40AM -33.9461 151.1772 183° South  Level Estimated
07:41AM -33.9429 151.1808 183° South  Level FlightAware Approximate
07:42AM -33.9461 151.1772 183° South  Level Estimated
07:43AM -33.9429 151.1808 183° South  Level FlightAware Approximate
07:44AM -33.9461 151.1772 183° South  Level Estimated
07:45AM -33.9429 151.1808 183° South  Level FlightAware Approximate
07:46AM -33.9461 151.1772 183° South  Level Estimated
07:47AM -33.9429 151.1808 183° South  Level FlightAware Approximate
07:48AM -33.9461 151.1772 183° South  Level Estimated